Time;durP1;ratioP1;P1;durP2;ratioP2;P2;SDS_P1;SDS_P2;PMS_P1;PMS_P2;Temp;Humidity;BMP_temperature;BMP_pressure;BME280_temperature;BME280_humidity;BME280_pressure;Samples;Min_cycle;Max_cycle;Signal;HPM_P1;HPM_P2
2024/01/03 00:03:06;;;;;;;;;;;9.20;99.90;;;;;;8417347;28;19924;-77
2024/01/03 00:07:09;;;;;;;;;;;9.10;99.90;;;;;;8428406;28;19928;-77
2024/01/03 00:11:16;;;;;;;;;;;9.20;99.90;;;;;;8431249;28;19932;-77
2024/01/03 00:15:38;;;;;;;;;;;9.20;99.90;;;;;;8422141;28;19966;-77
2024/01/03 00:19:39;;;;;;;;;;;9.20;99.90;;;;;;8386603;28;19931;-78
2024/01/03 00:23:49;;;;;;;;;;;9.10;99.90;;;;;;8445343;28;20018;-77
2024/01/03 00:27:50;;;;;;;;;;;9.10;99.90;;;;;;8426088;28;19973;-77
2024/01/03 00:31:52;;;;;;;;;;;9.00;99.90;;;;;;8439847;28;19928;-78
2024/01/03 00:35:55;;;;;;;;;;;9.00;99.90;;;;;;8440015;28;19924;-78
2024/01/03 00:39:57;;;;;;;;;;;9.00;99.90;;;;;;8422044;28;19938;-78
2024/01/03 00:43:59;;;;;;;;;;;9.00;99.90;;;;;;8416933;28;19928;-77
2024/01/03 00:48:01;;;;;;;;;;;9.10;99.90;;;;;;8420542;28;20360;-77
2024/01/03 00:52:03;;;;;;;;;;;9.10;99.90;;;;;;8425697;28;19924;-77
2024/01/03 00:56:05;;;;;;;;;;;9.10;99.90;;;;;;8441746;28;19924;-77
2024/01/03 01:10:15;;;;;;;;;;;9.20;99.90;;;;;;8440443;28;19981;-77
2024/01/03 01:14:17;;;;;;;;;;;9.30;99.90;;;;;;8421233;28;19924;-78
2024/01/03 01:18:18;;;;;;;;;;;9.30;99.90;;;;;;8437446;28;19993;-77
2024/01/03 01:22:20;;;;;;;;;;;9.30;99.90;;;;;;8446860;28;19930;-77
2024/01/03 01:26:22;;;;;;;;;;;9.40;99.90;;;;;;8441016;28;19978;-77
2024/01/03 01:30:23;;;;;;;;;;;9.40;99.90;;;;;;8420212;28;19928;-78
2024/01/03 01:34:25;;;;;;;;;;;9.50;99.90;;;;;;8435320;28;19925;-77
2024/01/03 01:38:27;;;;;;;;;;;9.50;99.90;;;;;;8437914;28;19968;-77
2024/01/03 01:42:30;;;;;;;;;;;9.60;99.90;;;;;;8424126;28;19950;-77
2024/01/03 01:46:32;;;;;;;;;;;9.70;99.90;;;;;;8422075;28;19928;-77
2024/01/03 01:50:35;;;;;;;;;;;9.70;99.90;;;;;;8441838;28;19924;-77
2024/01/03 01:54:37;;;;;;;;;;;9.80;99.90;;;;;;8410947;28;19955;-78
2024/01/03 01:58:40;;;;;;;;;;;9.80;99.90;;;;;;8419604;28;19923;-77
2024/01/03 02:02:43;;;;;;;;;;;9.90;99.90;;;;;;8437475;28;20436;-77
2024/01/03 02:06:45;;;;;;;;;;;9.90;99.90;;;;;;8416690;28;19924;-76
2024/01/03 02:10:47;;;;;;;;;;;9.90;99.90;;;;;;8423158;28;19971;-77
2024/01/03 02:14:48;;;;;;;;;;;10.00;99.90;;;;;;8413532;28;19924;-76
2024/01/03 02:18:50;;;;;;;;;;;10.00;99.90;;;;;;8435239;28;19968;-77
2024/01/03 02:22:52;;;;;;;;;;;10.00;99.90;;;;;;8421093;28;20393;-77
2024/01/03 02:26:53;;;;;;;;;;;10.10;99.90;;;;;;8418876;28;19943;-76
2024/01/03 02:30:55;;;;;;;;;;;10.10;99.90;;;;;;8425905;28;19935;-77
2024/01/03 02:34:57;;;;;;;;;;;10.10;99.90;;;;;;8422032;28;19924;-77
2024/01/03 02:38:59;;;;;;;;;;;10.20;99.90;;;;;;8421066;28;19923;-76
2024/01/03 02:43:01;;;;;;;;;;;10.20;99.90;;;;;;8436219;28;19924;-76
2024/01/03 03:02:03;;;;;;;;;;;10.20;99.90;;;;;;8438289;28;19931;-76
2024/01/03 03:06:04;;;;;;;;;;;10.20;99.90;;;;;;8451534;28;19924;-77
2024/01/03 03:10:10;;;;;;;;;;;10.20;99.90;;;;;;8429617;28;19924;-78
2024/01/03 03:14:13;;;;;;;;;;;10.20;99.90;;;;;;8431190;28;19931;-78
2024/01/03 03:18:15;;;;;;;;;;;10.20;99.90;;;;;;8415644;28;20291;-76
2024/01/03 03:22:17;;;;;;;;;;;10.30;99.90;;;;;;8434714;28;19928;-77
2024/01/03 03:26:18;;;;;;;;;;;10.30;99.90;;;;;;8429943;28;19928;-77
2024/01/03 03:30:20;;;;;;;;;;;10.30;99.90;;;;;;8436532;28;19951;-76
2024/01/03 03:34:22;;;;;;;;;;;10.30;99.90;;;;;;8411886;28;19976;-77
2024/01/03 03:38:23;;;;;;;;;;;10.30;99.90;;;;;;8418398;28;20630;-77
2024/01/03 03:42:25;;;;;;;;;;;10.40;99.90;;;;;;8427846;28;19932;-78
2024/01/03 03:46:27;;;;;;;;;;;10.30;99.90;;;;;;8412707;28;19927;-76
2024/01/03 03:50:28;;;;;;;;;;;10.30;99.90;;;;;;8427204;28;19924;-77
2024/01/03 03:54:30;;;;;;;;;;;10.30;99.90;;;;;;8424528;28;19925;-77
2024/01/03 03:58:32;;;;;;;;;;;10.30;99.90;;;;;;8432764;28;19935;-76
2024/01/03 04:02:33;;;;;;;;;;;10.30;99.90;;;;;;8442255;28;19971;-77
2024/01/03 04:06:40;;;;;;;;;;;10.30;99.90;;;;;;8438236;28;20010;-77
2024/01/03 04:10:42;;;;;;;;;;;10.30;99.90;;;;;;8422867;28;19971;-77
2024/01/03 04:14:43;;;;;;;;;;;10.30;99.90;;;;;;8440116;28;19935;-77
2024/01/03 04:18:45;;;;;;;;;;;10.30;99.90;;;;;;8423440;28;19928;-77
2024/01/03 04:27:51;;;;;;;;;;;10.40;99.90;;;;;;8426497;28;20669;-76
2024/01/03 04:31:52;;;;;;;;;;;10.40;99.90;;;;;;8416060;28;19971;-77
2024/01/03 04:35:54;;;;;;;;;;;10.40;99.90;;;;;;8436610;28;20328;-77
2024/01/03 04:39:56;;;;;;;;;;;10.40;99.90;;;;;;8440634;28;20371;-77
2024/01/03 04:43:58;;;;;;;;;;;10.50;99.90;;;;;;8417685;28;20272;-77
2024/01/03 04:47:59;;;;;;;;;;;10.40;99.90;;;;;;8413664;28;19943;-76
2024/01/03 04:52:01;;;;;;;;;;;10.40;99.90;;;;;;8425629;28;19927;-76
2024/01/03 04:56:03;;;;;;;;;;;10.40;99.90;;;;;;8420711;28;20407;-77
2024/01/03 05:00:05;;;;;;;;;;;10.50;99.90;;;;;;8429548;28;19931;-77
2024/01/03 05:04:07;;;;;;;;;;;10.50;99.90;;;;;;8432903;28;19928;-78
2024/01/03 05:08:08;;;;;;;;;;;10.50;99.90;;;;;;8430915;28;19930;-77
2024/01/03 05:12:10;;;;;;;;;;;10.50;99.90;;;;;;8419517;28;19924;-77
2024/01/03 05:16:12;;;;;;;;;;;10.60;99.90;;;;;;8430009;28;19950;-76
2024/01/03 05:20:14;;;;;;;;;;;10.60;99.90;;;;;;8436026;28;19947;-77
2024/01/03 05:24:16;;;;;;;;;;;10.60;99.90;;;;;;8436718;28;19931;-77
2024/01/03 05:28:17;;;;;;;;;;;10.50;99.90;;;;;;8412861;28;19931;-76
2024/01/03 05:32:19;;;;;;;;;;;10.50;99.90;;;;;;8421167;28;19924;-76
2024/01/03 05:36:21;;;;;;;;;;;10.30;99.90;;;;;;8439528;28;19924;-76
2024/01/03 05:40:22;;;;;;;;;;;10.20;99.90;;;;;;8437995;28;19982;-75
2024/01/03 05:44:24;;;;;;;;;;;10.00;99.90;;;;;;8446042;28;20436;-76
2024/01/03 05:48:26;;;;;;;;;;;9.90;99.90;;;;;;8417766;28;19931;-76
2024/01/03 05:52:27;;;;;;;;;;;9.80;99.90;;;;;;8412537;28;19924;-76
2024/01/03 05:56:29;;;;;;;;;;;9.80;99.90;;;;;;8417210;28;20272;-77
2024/01/03 06:00:31;;;;;;;;;;;9.70;99.90;;;;;;8409648;28;19935;-77
2024/01/03 06:04:33;;;;;;;;;;;9.70;99.90;;;;;;8417029;28;19939;-77
2024/01/03 06:08:34;;;;;;;;;;;9.70;99.90;;;;;;8436065;28;19928;-76
2024/01/03 06:12:36;;;;;;;;;;;9.80;99.90;;;;;;8417287;28;19938;-76
2024/01/03 06:16:37;;;;;;;;;;;9.80;99.90;;;;;;8408005;28;20011;-76
2024/01/03 06:20:40;;;;;;;;;;;9.80;99.90;;;;;;8414455;28;20620;-77
2024/01/03 06:24:42;;;;;;;;;;;9.80;99.90;;;;;;8426497;28;19928;-77
2024/01/03 06:28:43;;;;;;;;;;;9.80;99.90;;;;;;8415532;28;19934;-76
2024/01/03 06:32:45;;;;;;;;;;;9.80;99.90;;;;;;8412931;28;20335;-78
2024/01/03 06:36:47;;;;;;;;;;;9.80;99.90;;;;;;8428878;28;20405;-76
2024/01/03 06:40:49;;;;;;;;;;;9.80;99.90;;;;;;8428169;28;19932;-76
2024/01/03 06:44:53;;;;;;;;;;;9.80;99.90;;;;;;8416530;28;19931;-76
2024/01/03 06:48:59;;;;;;;;;;;9.80;99.90;;;;;;8417222;28;20005;-77
2024/01/03 06:53:01;;;;;;;;;;;9.80;99.90;;;;;;8414350;28;19931;-76
2024/01/03 06:57:03;;;;;;;;;;;9.70;99.90;;;;;;8412595;28;19953;-77
2024/01/03 07:01:05;;;;;;;;;;;9.70;99.90;;;;;;8418044;28;19930;-77
2024/01/03 07:05:06;;;;;;;;;;;9.60;99.90;;;;;;8414286;28;19924;-76
2024/01/03 07:09:08;;;;;;;;;;;9.60;99.90;;;;;;8416147;28;19927;-77
2024/01/03 07:13:10;;;;;;;;;;;9.50;99.90;;;;;;8414819;28;19927;-76
2024/01/03 07:17:14;;;;;;;;;;;9.40;99.90;;;;;;8426255;28;19924;-77
2024/01/03 07:21:16;;;;;;;;;;;9.30;99.90;;;;;;8413373;28;19924;-76
2024/01/03 07:25:17;;;;;;;;;;;9.20;99.90;;;;;;8402392;28;20299;-77
2024/01/03 07:29:19;;;;;;;;;;;9.10;99.90;;;;;;8429366;28;19931;-77
2024/01/03 07:33:21;;;;;;;;;;;9.00;99.90;;;;;;8434996;28;19924;-76
2024/01/03 07:37:22;;;;;;;;;;;8.90;99.90;;;;;;8412810;28;19924;-77
2024/01/03 07:41:24;;;;;;;;;;;8.90;99.90;;;;;;8428709;28;19978;-76
2024/01/03 07:45:26;;;;;;;;;;;8.90;99.90;;;;;;8430733;28;20303;-76
2024/01/03 07:49:28;;;;;;;;;;;8.80;99.90;;;;;;8430755;28;19964;-76
2024/01/03 07:53:29;;;;;;;;;;;8.80;99.90;;;;;;8415557;28;20363;-76
2024/01/03 07:57:31;;;;;;;;;;;8.80;99.90;;;;;;8429211;28;19958;-76
2024/01/03 08:01:33;;;;;;;;;;;8.80;99.90;;;;;;8409145;28;19924;-76
2024/01/03 08:05:35;;;;;;;;;;;8.90;99.90;;;;;;8430046;28;20531;-77
2024/01/03 08:09:37;;;;;;;;;;;9.00;99.90;;;;;;8417147;28;19977;-76
2024/01/03 08:13:39;;;;;;;;;;;9.00;99.90;;;;;;8433407;28;20330;-76
2024/01/03 08:17:40;;;;;;;;;;;9.10;99.90;;;;;;8413344;28;19935;-76
2024/01/03 08:21:42;;;;;;;;;;;9.10;99.90;;;;;;8413105;28;19993;-76
2024/01/03 08:25:44;;;;;;;;;;;9.20;99.90;;;;;;8433542;28;20326;-76
2024/01/03 08:29:47;;;;;;;;;;;9.20;99.90;;;;;;8421879;28;19959;-76
2024/01/03 08:33:50;;;;;;;;;;;9.30;99.90;;;;;;8425884;28;19924;-77
2024/01/03 08:37:52;;;;;;;;;;;9.30;99.90;;;;;;8438965;28;20011;-77
2024/01/03 08:41:54;;;;;;;;;;;9.30;99.90;;;;;;8411087;28;20260;-77
2024/01/03 08:45:55;;;;;;;;;;;9.30;99.90;;;;;;8426559;28;19946;-77
2024/01/03 08:49:57;;;;;;;;;;;9.30;99.90;;;;;;8421828;28;19928;-76
2024/01/03 08:53:59;;;;;;;;;;;9.40;99.90;;;;;;8418113;28;19979;-76
2024/01/03 08:58:02;;;;;;;;;;;9.40;99.90;;;;;;8421086;28;19950;-76
2024/01/03 09:02:04;;;;;;;;;;;9.40;99.90;;;;;;8418994;28;20010;-76
2024/01/03 09:06:06;;;;;;;;;;;9.40;99.90;;;;;;8433711;28;19928;-76
2024/01/03 09:10:08;;;;;;;;;;;9.40;99.90;;;;;;8432558;28;19924;-76
2024/01/03 09:14:09;;;;;;;;;;;9.50;99.90;;;;;;8433748;28;19924;-76
2024/01/03 09:18:11;;;;;;;;;;;9.50;99.90;;;;;;8429920;28;19924;-76
2024/01/03 09:22:15;;;;;;;;;;;9.50;99.90;;;;;;8443793;28;20361;-77
2024/01/03 09:26:19;;;;;;;;;;;9.50;99.90;;;;;;8415847;28;19928;-76
2024/01/03 09:30:21;;;;;;;;;;;9.50;99.90;;;;;;8434765;28;19934;-77
2024/01/03 09:34:23;;;;;;;;;;;9.50;99.90;;;;;;8431157;28;19931;-77
2024/01/03 09:38:26;;;;;;;;;;;9.60;99.90;;;;;;8434494;28;19950;-77
2024/01/03 09:42:28;;;;;;;;;;;9.60;99.90;;;;;;8443365;28;19954;-76
2024/01/03 09:46:31;;;;;;;;;;;9.50;99.90;;;;;;8442030;28;19974;-77
2024/01/03 09:50:33;;;;;;;;;;;9.40;99.90;;;;;;8427510;28;19924;-77
2024/01/03 09:54:34;;;;;;;;;;;9.40;99.90;;;;;;8413823;28;19976;-77
2024/01/03 09:58:37;;;;;;;;;;;9.40;99.90;;;;;;8426690;28;20267;-76
2024/01/03 10:02:38;;;;;;;;;;;9.30;99.90;;;;;;8443548;28;19930;-76
2024/01/03 10:06:50;;;;;;;;;;;9.30;99.90;;;;;;8444164;28;19924;-77
2024/01/03 10:10:52;;;;;;;;;;;9.30;99.90;;;;;;8430793;28;19924;-77
2024/01/03 10:14:54;;;;;;;;;;;9.30;99.90;;;;;;8434446;28;19930;-77
2024/01/03 10:19:15;;;;;;;;;;;9.30;99.90;;;;;;8436321;28;19924;-77
2024/01/03 10:23:19;;;;;;;;;;;9.40;99.90;;;;;;8434027;28;19924;-77
2024/01/03 10:27:21;;;;;;;;;;;9.40;99.90;;;;;;8430599;28;20375;-77
2024/01/03 10:31:23;;;;;;;;;;;9.40;99.90;;;;;;8435446;28;19975;-76
2024/01/03 10:35:29;;;;;;;;;;;9.60;99.90;;;;;;8419729;28;19934;-77
2024/01/03 10:39:31;;;;;;;;;;;9.60;99.90;;;;;;8421276;28;19927;-77
2024/01/03 10:43:34;;;;;;;;;;;9.80;99.90;;;;;;8427288;28;20793;-77
2024/01/03 10:47:36;;;;;;;;;;;9.80;99.90;;;;;;8418390;28;20685;-76
2024/01/03 10:51:40;;;;;;;;;;;9.90;99.90;;;;;;8429280;28;20433;-77
2024/01/03 10:55:41;;;;;;;;;;;9.90;99.90;;;;;;8426056;28;19924;-76
2024/01/03 10:59:55;;;;;;;;;;;9.80;99.90;;;;;;8422718;28;20379;-76
2024/01/03 11:04:06;;;;;;;;;;;9.80;99.90;;;;;;8423994;28;19931;-77
2024/01/03 11:08:11;;;;;;;;;;;9.80;99.90;;;;;;8446938;28;20005;-76
2024/01/03 11:12:13;;;;;;;;;;;9.80;99.90;;;;;;8408810;28;20344;-76
2024/01/03 11:16:32;;;;;;;;;;;9.80;99.90;;;;;;8437557;28;19943;-76
2024/01/03 11:20:34;;;;;;;;;;;10.10;99.90;;;;;;8440898;28;19984;-76
2024/01/03 11:24:38;;;;;;;;;;;10.20;99.90;;;;;;8426184;28;19979;-77
2024/01/03 11:28:47;;;;;;;;;;;10.20;99.90;;;;;;8429924;28;19995;-76
2024/01/03 11:32:49;;;;;;;;;;;10.20;99.90;;;;;;8443177;28;20038;-76
2024/01/03 11:36:51;;;;;;;;;;;10.30;99.90;;;;;;8428529;28;19930;-76
2024/01/03 11:40:52;;;;;;;;;;;10.30;99.90;;;;;;8427075;28;20630;-76
2024/01/03 11:45:07;;;;;;;;;;;10.30;99.90;;;;;;8412250;28;19924;-76
2024/01/03 11:49:09;;;;;;;;;;;10.40;99.90;;;;;;8421954;28;19979;-76
2024/01/03 11:53:11;;;;;;;;;;;10.40;99.90;;;;;;8435957;28;20393;-76
2024/01/03 11:57:13;;;;;;;;;;;10.30;99.90;;;;;;8433110;28;19924;-76
2024/01/03 12:01:16;;;;;;;;;;;10.40;99.90;;;;;;8420567;28;20187;-76
2024/01/03 12:05:17;;;;;;;;;;;10.30;99.90;;;;;;8425979;28;20329;-76
2024/01/03 12:09:19;;;;;;;;;;;10.20;99.90;;;;;;8440679;28;19924;-76
2024/01/03 12:13:21;;;;;;;;;;;10.20;99.90;;;;;;8431595;28;20341;-76
2024/01/03 12:17:27;;;;;;;;;;;10.10;99.90;;;;;;8416781;28;19925;-76
2024/01/03 12:21:29;;;;;;;;;;;10.10;99.90;;;;;;8438149;28;19924;-76
2024/01/03 12:25:31;;;;;;;;;;;10.10;99.90;;;;;;8432268;28;19969;-76
2024/01/03 12:29:34;;;;;;;;;;;10.10;99.90;;;;;;8444538;28;19932;-76
2024/01/03 12:33:36;;;;;;;;;;;10.20;99.90;;;;;;8437708;28;19924;-76
2024/01/03 12:37:44;;;;;;;;;;;10.40;99.90;;;;;;8435336;28;19939;-76
2024/01/03 12:41:47;;;;;;;;;;;10.50;99.90;;;;;;8435078;28;19924;-76
2024/01/03 12:45:49;;;;;;;;;;;10.60;99.90;;;;;;8427726;28;20370;-76
2024/01/03 12:49:53;;;;;;;;;;;10.80;99.90;;;;;;8438919;28;20387;-76
2024/01/03 12:53:55;;;;;;;;;;;10.80;99.90;;;;;;8433634;28;20377;-77
2024/01/03 12:57:56;;;;;;;;;;;10.60;99.90;;;;;;8437509;28;19924;-76
2024/01/03 13:01:58;;;;;;;;;;;10.40;99.90;;;;;;8433534;28;19924;-76
2024/01/03 13:06:00;;;;;;;;;;;10.30;99.90;;;;;;8435343;28;19925;-76
2024/01/03 13:10:02;;;;;;;;;;;10.00;99.90;;;;;;8435055;28;19973;-76
2024/01/03 13:14:04;;;;;;;;;;;9.80;99.90;;;;;;8449252;28;19963;-76
2024/01/03 13:18:05;;;;;;;;;;;9.60;99.90;;;;;;8442581;28;19924;-75
2024/01/03 13:22:07;;;;;;;;;;;9.40;99.90;;;;;;8420197;28;20256;-76
2024/01/03 13:26:09;;;;;;;;;;;9.30;99.90;;;;;;8414124;28;19928;-76
2024/01/03 13:30:11;;;;;;;;;;;9.20;99.90;;;;;;8438009;28;20367;-76
2024/01/03 13:34:14;;;;;;;;;;;9.20;99.90;;;;;;8424285;28;19924;-77
2024/01/03 13:38:16;;;;;;;;;;;9.20;99.90;;;;;;8431139;28;19958;-76
2024/01/03 13:42:18;;;;;;;;;;;9.20;99.90;;;;;;8416873;28;19923;-76
2024/01/03 13:46:21;;;;;;;;;;;9.20;99.90;;;;;;8417452;28;19963;-76
2024/01/03 13:50:22;;;;;;;;;;;9.20;99.90;;;;;;8417848;28;20428;-76
2024/01/03 13:54:24;;;;;;;;;;;9.30;99.90;;;;;;8417432;28;19923;-76
2024/01/03 13:58:26;;;;;;;;;;;9.30;99.90;;;;;;8429483;28;19974;-76
2024/01/03 14:02:28;;;;;;;;;;;9.30;99.90;;;;;;8436811;28;20326;-76
2024/01/03 14:06:29;;;;;;;;;;;9.30;99.90;;;;;;8414930;28;19927;-77
2024/01/03 14:10:31;;;;;;;;;;;9.30;99.90;;;;;;8420876;28;20414;-76
2024/01/03 14:14:36;;;;;;;;;;;9.30;99.90;;;;;;8414743;28;20422;-76
2024/01/03 14:18:38;;;;;;;;;;;9.30;99.90;;;;;;8424020;28;20459;-76
2024/01/03 14:22:42;;;;;;;;;;;9.20;99.90;;;;;;8413049;28;19928;-76
2024/01/03 14:26:44;;;;;;;;;;;9.20;99.90;;;;;;8426729;28;20355;-76
2024/01/03 14:30:46;;;;;;;;;;;9.10;99.90;;;;;;8421583;28;19928;-75
2024/01/03 14:34:48;;;;;;;;;;;9.10;99.90;;;;;;8405165;28;20338;-76
2024/01/03 14:38:51;;;;;;;;;;;9.10;99.90;;;;;;8419347;28;19928;-76
2024/01/03 14:42:54;;;;;;;;;;;9.00;99.90;;;;;;8423062;28;19935;-76
2024/01/03 14:46:56;;;;;;;;;;;9.00;99.90;;;;;;8421554;28;19924;-76
2024/01/03 14:50:59;;;;;;;;;;;8.90;99.90;;;;;;8417351;28;19932;-76
2024/01/03 14:55:01;;;;;;;;;;;8.90;99.90;;;;;;8416186;28;19932;-76
2024/01/03 14:59:03;;;;;;;;;;;8.80;99.90;;;;;;8423549;28;20387;-76
2024/01/03 15:03:09;;;;;;;;;;;8.80;99.90;;;;;;8412050;28;21263;-76
2024/01/03 15:07:11;;;;;;;;;;;8.70;99.90;;;;;;8424332;28;19924;-76
2024/01/03 15:11:13;;;;;;;;;;;8.70;99.90;;;;;;8425588;28;19928;-76
2024/01/03 15:15:15;;;;;;;;;;;8.60;99.90;;;;;;8431844;28;19956;-76
2024/01/03 15:19:16;;;;;;;;;;;8.60;99.90;;;;;;8428231;28;19930;-76
2024/01/03 15:23:19;;;;;;;;;;;8.60;99.90;;;;;;8410872;28;19932;-76
2024/01/03 15:27:20;;;;;;;;;;;8.60;99.90;;;;;;8406046;28;19927;-76
2024/01/03 15:31:25;;;;;;;;;;;8.60;99.90;;;;;;8403732;28;19950;-76
2024/01/03 15:35:27;;;;;;;;;;;8.60;99.90;;;;;;8427324;28;19949;-76
2024/01/03 15:39:29;;;;;;;;;;;8.60;99.90;;;;;;8421151;28;20018;-76
2024/01/03 15:43:30;;;;;;;;;;;8.70;99.90;;;;;;8402711;28;19923;-76
2024/01/03 15:47:32;;;;;;;;;;;8.70;99.90;;;;;;8431531;28;19928;-76
2024/01/03 15:51:34;;;;;;;;;;;8.60;99.90;;;;;;8418406;28;20300;-75
2024/01/03 15:55:37;;;;;;;;;;;8.60;99.90;;;;;;8402514;28;20333;-76
2024/01/03 15:59:39;;;;;;;;;;;8.60;99.90;;;;;;8422491;28;19932;-76
2024/01/03 16:03:41;;;;;;;;;;;8.60;99.90;;;;;;8426886;28;19967;-75
2024/01/03 16:07:42;;;;;;;;;;;8.70;99.90;;;;;;8415939;28;19924;-76
2024/01/03 16:11:44;;;;;;;;;;;8.70;99.90;;;;;;8427896;28;20393;-76
2024/01/03 16:15:46;;;;;;;;;;;8.60;99.90;;;;;;8413912;28;19925;-76
2024/01/03 16:19:48;;;;;;;;;;;8.60;99.90;;;;;;8419572;28;20367;-76
2024/01/03 16:23:49;;;;;;;;;;;8.60;99.90;;;;;;8424385;28;20303;-76
2024/01/03 16:27:52;;;;;;;;;;;8.60;99.90;;;;;;8420229;28;20027;-76
2024/01/03 16:31:54;;;;;;;;;;;8.60;99.90;;;;;;8431227;28;19924;-76
2024/01/03 16:35:56;;;;;;;;;;;8.60;99.90;;;;;;8423886;28;19930;-76
2024/01/03 16:39:59;;;;;;;;;;;8.60;99.90;;;;;;8419038;28;20055;-76
2024/01/03 16:44:01;;;;;;;;;;;8.70;99.90;;;;;;8412404;28;19928;-76
2024/01/03 16:48:03;;;;;;;;;;;8.70;99.90;;;;;;8420637;28;19932;-76
2024/01/03 16:52:05;;;;;;;;;;;8.70;99.90;;;;;;8421229;28;19924;-76
2024/01/03 16:56:07;;;;;;;;;;;8.70;99.90;;;;;;8420397;28;19932;-76
2024/01/03 17:00:09;;;;;;;;;;;8.80;99.90;;;;;;8419451;28;20287;-76
2024/01/03 17:04:14;;;;;;;;;;;8.80;99.90;;;;;;8428410;28;19934;-76
2024/01/03 17:08:17;;;;;;;;;;;8.80;99.90;;;;;;8422035;28;19924;-76
2024/01/03 17:12:19;;;;;;;;;;;8.80;99.90;;;;;;8424907;28;19939;-76
2024/01/03 17:16:21;;;;;;;;;;;8.80;99.90;;;;;;8430296;28;19932;-76
2024/01/03 17:20:22;;;;;;;;;;;8.80;99.90;;;;;;8434664;28;19953;-76
2024/01/03 17:24:27;;;;;;;;;;;8.80;99.90;;;;;;8438933;28;19935;-76
2024/01/03 17:28:29;;;;;;;;;;;8.80;99.90;;;;;;8421326;28;20375;-76
2024/01/03 17:32:31;;;;;;;;;;;8.80;99.90;;;;;;8430101;28;20271;-76
2024/01/03 17:36:32;;;;;;;;;;;8.80;99.90;;;;;;8429217;28;20011;-76
2024/01/03 17:40:35;;;;;;;;;;;8.80;99.90;;;;;;8435404;28;19963;-76
2024/01/03 17:44:37;;;;;;;;;;;8.80;99.90;;;;;;8420478;28;19943;-76
2024/01/03 17:48:39;;;;;;;;;;;8.80;99.90;;;;;;8411871;28;20291;-76
2024/01/03 17:52:42;;;;;;;;;;;8.70;99.90;;;;;;8436075;28;19989;-76
2024/01/03 17:56:43;;;;;;;;;;;8.70;99.90;;;;;;8406768;28;19928;-76
2024/01/03 18:00:45;;;;;;;;;;;8.70;99.90;;;;;;8413340;28;19931;-76
2024/01/03 18:04:48;;;;;;;;;;;8.70;99.90;;;;;;8423539;28;19973;-76
2024/01/03 18:08:50;;;;;;;;;;;8.70;99.90;;;;;;8416867;28;19924;-77
2024/01/03 18:12:52;;;;;;;;;;;8.70;99.90;;;;;;8423870;28;20283;-76
2024/01/03 18:17:03;;;;;;;;;;;8.60;99.90;;;;;;8416944;28;20004;-76
2024/01/03 18:21:05;;;;;;;;;;;8.60;99.90;;;;;;8417273;28;19928;-77
2024/01/03 18:25:08;;;;;;;;;;;8.60;99.90;;;;;;8431242;28;20264;-76
2024/01/03 18:29:10;;;;;;;;;;;8.50;99.90;;;;;;8416960;28;20470;-76
2024/01/03 18:33:12;;;;;;;;;;;8.50;99.90;;;;;;8424897;28;19986;-76
2024/01/03 18:37:14;;;;;;;;;;;8.40;99.90;;;;;;8421545;28;19956;-76
2024/01/03 18:41:16;;;;;;;;;;;8.40;99.90;;;;;;8421424;28;19924;-76
2024/01/03 18:45:18;;;;;;;;;;;8.40;99.90;;;;;;8406977;28;19932;-76
2024/01/03 18:49:19;;;;;;;;;;;8.30;99.90;;;;;;8412135;28;19928;-76
2024/01/03 18:53:27;;;;;;;;;;;8.20;99.90;;;;;;8411291;28;19939;-76
2024/01/03 18:57:30;;;;;;;;;;;8.20;99.90;;;;;;8423927;28;19932;-76
2024/01/03 19:01:31;;;;;;;;;;;8.10;99.90;;;;;;8430596;28;19992;-76
2024/01/03 19:05:33;;;;;;;;;;;8.10;99.90;;;;;;8427001;28;20432;-76
2024/01/03 19:09:35;;;;;;;;;;;8.20;99.90;;;;;;8426040;28;19932;-76
2024/01/03 19:13:37;;;;;;;;;;;8.20;99.90;;;;;;8416925;28;20290;-75
2024/01/03 19:17:38;;;;;;;;;;;8.20;99.90;;;;;;8426914;28;20272;-76
2024/01/03 19:21:40;;;;;;;;;;;8.30;99.90;;;;;;8408940;28;19958;-76
2024/01/03 19:25:42;;;;;;;;;;;8.30;99.90;;;;;;8423692;28;20133;-76
2024/01/03 19:29:44;;;;;;;;;;;8.30;99.90;;;;;;8417521;28;19992;-76
2024/01/03 19:33:50;;;;;;;;;;;8.40;99.90;;;;;;8412705;28;19924;-76
2024/01/03 19:37:52;;;;;;;;;;;8.40;99.90;;;;;;8422174;28;19935;-75
2024/01/03 19:41:54;;;;;;;;;;;8.40;99.90;;;;;;8421051;28;19924;-75
2024/01/03 19:45:56;;;;;;;;;;;8.40;99.90;;;;;;8420320;28;19924;-76
2024/01/03 19:49:57;;;;;;;;;;;8.40;99.90;;;;;;8420255;28;20406;-75
2024/01/03 19:53:59;;;;;;;;;;;8.40;99.90;;;;;;8419089;28;19924;-76
2024/01/03 19:58:02;;;;;;;;;;;8.40;99.90;;;;;;8404861;28;20039;-75
2024/01/03 20:02:04;;;;;;;;;;;8.40;99.90;;;;;;8418087;28;20952;-76
2024/01/03 20:06:06;;;;;;;;;;;8.40;99.90;;;;;;8411699;28;19932;-76
2024/01/03 20:10:08;;;;;;;;;;;8.40;99.90;;;;;;8419936;28;19928;-76
2024/01/03 20:14:10;;;;;;;;;;;8.40;99.90;;;;;;8422092;28;19934;-75
2024/01/03 20:18:12;;;;;;;;;;;8.40;99.90;;;;;;8415029;28;19924;-75
2024/01/03 20:22:13;;;;;;;;;;;8.40;99.90;;;;;;8427927;28;19947;-75
2024/01/03 20:26:15;;;;;;;;;;;8.40;99.90;;;;;;8423462;28;20042;-75
2024/01/03 20:30:18;;;;;;;;;;;8.40;99.90;;;;;;8410452;28;19958;-75
2024/01/03 20:34:20;;;;;;;;;;;8.40;99.90;;;;;;8426816;28;19924;-76
2024/01/03 20:38:22;;;;;;;;;;;8.40;99.90;;;;;;8414165;28;19932;-75
2024/01/03 20:42:24;;;;;;;;;;;8.40;99.90;;;;;;8426157;28;19943;-76
2024/01/03 20:46:25;;;;;;;;;;;8.40;99.90;;;;;;8405118;28;19970;-76
2024/01/03 20:50:31;;;;;;;;;;;8.40;99.90;;;;;;8427002;28;20261;-75
2024/01/03 21:04:46;;;;;;;;;;;8.30;99.90;;;;;;8365644;28;20429;-75
2024/01/03 21:08:48;;;;;;;;;;;8.20;99.90;;;;;;8357750;28;20367;-76
2024/01/03 21:12:50;;;;;;;;;;;8.20;99.90;;;;;;8360082;28;19978;-76
2024/01/03 21:16:52;;;;;;;;;;;8.20;99.90;;;;;;8364091;28;19936;-76
2024/01/03 21:20:54;;;;;;;;;;;8.10;99.90;;;;;;8363347;28;19924;-76
2024/01/03 21:24:56;;;;;;;;;;;8.10;99.90;;;;;;8363693;28;19975;-75
2024/01/03 21:28:59;;;;;;;;;;;8.10;99.90;;;;;;8362763;28;19931;-76
2024/01/03 21:33:20;;;;;;;;;;;8.10;99.90;;;;;;8359103;28;19925;-76
2024/01/03 21:37:22;;;;;;;;;;;8.10;99.90;;;;;;8359906;28;19947;-76
2024/01/03 21:41:24;;;;;;;;;;;8.20;99.90;;;;;;8360133;28;20793;-76
2024/01/03 21:45:26;;;;;;;;;;;8.20;99.90;;;;;;8362996;28;19933;-76
2024/01/03 21:49:29;;;;;;;;;;;8.20;99.90;;;;;;8353814;28;19925;-76
2024/01/03 21:53:31;;;;;;;;;;;8.20;99.90;;;;;;8364110;28;19936;-76
2024/01/03 21:57:33;;;;;;;;;;;8.20;99.90;;;;;;8362148;28;19929;-76
2024/01/03 22:01:34;;;;;;;;;;;8.20;99.90;;;;;;8391242;28;19924;-76
2024/01/03 22:05:36;;;;;;;;;;;8.20;99.90;;;;;;8429991;28;19924;-76
2024/01/03 22:09:38;;;;;;;;;;;8.20;99.90;;;;;;8422410;28;19932;-75
2024/01/03 22:13:41;;;;;;;;;;;8.20;99.90;;;;;;8441811;28;19931;-76
2024/01/03 22:17:43;;;;;;;;;;;8.20;99.90;;;;;;8442911;28;19975;-75
2024/01/03 22:21:45;;;;;;;;;;;8.20;99.90;;;;;;8450751;28;19931;-76
2024/01/03 22:25:49;;;;;;;;;;;8.20;99.90;;;;;;8425649;28;20248;-76
2024/01/03 22:29:50;;;;;;;;;;;8.20;99.90;;;;;;8439595;28;20351;-76
2024/01/03 22:33:52;;;;;;;;;;;8.20;99.90;;;;;;8419367;28;19924;-75
2024/01/03 22:37:54;;;;;;;;;;;8.30;99.90;;;;;;8435518;28;20333;-76
2024/01/03 22:41:56;;;;;;;;;;;8.20;99.90;;;;;;8420333;28;19926;-76
2024/01/03 22:45:57;;;;;;;;;;;8.20;99.90;;;;;;8443000;28;19923;-76
2024/01/03 22:49:59;;;;;;;;;;;8.20;99.90;;;;;;8425702;28;19928;-76
2024/01/03 22:54:03;;;;;;;;;;;8.20;99.90;;;;;;8413181;28;20283;-76
2024/01/03 22:58:05;;;;;;;;;;;8.30;99.90;;;;;;8409466;28;19924;-76
2024/01/03 23:02:06;;;;;;;;;;;8.30;99.90;;;;;;8416293;28;20282;-76
2024/01/03 23:06:09;;;;;;;;;;;8.30;99.90;;;;;;8407951;28;19928;-76
2024/01/03 23:10:11;;;;;;;;;;;8.30;99.90;;;;;;8431663;28;19932;-75
2024/01/03 23:14:12;;;;;;;;;;;8.40;99.90;;;;;;8441720;28;20307;-76
2024/01/03 23:18:14;;;;;;;;;;;8.40;99.90;;;;;;8418820;28;19924;-76
2024/01/03 23:22:17;;;;;;;;;;;8.40;99.90;;;;;;8440013;28;19931;-76
2024/01/03 23:26:18;;;;;;;;;;;8.40;99.90;;;;;;8436826;28;19928;-76
2024/01/03 23:30:21;;;;;;;;;;;8.40;99.90;;;;;;8422988;28;19931;-76
2024/01/03 23:34:23;;;;;;;;;;;8.40;99.90;;;;;;8428173;28;19924;-76
2024/01/03 23:38:25;;;;;;;;;;;8.40;99.90;;;;;;8416527;28;19932;-76
2024/01/03 23:42:27;;;;;;;;;;;8.40;99.90;;;;;;8419284;28;19932;-76
2024/01/03 23:46:28;;;;;;;;;;;8.40;99.90;;;;;;8439442;28;19924;-76
2024/01/03 23:50:30;;;;;;;;;;;8.40;99.90;;;;;;8446115;28;19974;-76
2024/01/03 23:54:32;;;;;;;;;;;8.40;99.90;;;;;;8430286;28;20434;-76
2024/01/03 23:58:33;;;;;;;;;;;8.40;99.90;;;;;;8435517;28;19924;-76
